首页
METAR-TAF:

METAR-TAF

机场 :

蒙特利尔-米拉贝勒国际机场

蒙特利尔米拉贝尔, 魁北克, 加拿大

纬度: 45-41N, 经度: 074-02W, 海拔: 82米

当前天气观测

该预报发布于47分钟前的18:00 UTC
风速10节,风向西转西南,有时为18节阵风
温度 -16°C
湿度 50%
气压 1040 hPa
能見度: 72.4公里
少量云层高于2500英尺

METAR: CYMX 171800Z 24010G18KT 45SM FEW025 M16/M24 A3072 RMK SC1 SC TR SLP414

时间: 13:47 (18:47 UTC)

预报

该预报发布于1小时和9分钟前的17:38 UTC
预报有效从17日的 18点(UTC)到 18日的 18点(UTC)
风速12节,风向西南
能見度: 10公里
天空无云
成为
从 18日的 00点(UTC)到 18日的 02点(UTC)
风速3节,风向多变
从 18日的 1200点(UTC)
风速5节,风向东北
能見度: 10公里
少量云层高于2000英尺
多云层高于12000英尺

TAF: CYMX 171738Z 1718/1818 23012KT P6SM SKC BECMG 1800/1802 VRB03KT FM181200 05005KT P6SM FEW020 BKN120 RMK NXT FCST BY 180000Z

超过4000个机场的气象观测和天气预报(METAR&TAF报告)。

可查询的气象台以黄色和红色小点在地图上表示。

将鼠标移到小点上方,可查看气象台名称。

然后点击查看天气观测和预报。

如需切换地图:点击带黑十字的绿色按钮放大地图;点击带横线的绿色按钮缩小地图;或者点击绿色箭头查看邻近地区的地图。


METAR-TAF: